createdAt,value
2018-10-07T00:00:08.641Z,42.80
2018-10-07T00:02:40.184Z,42.73
2018-10-07T00:05:11.217Z,41.83
2018-10-07T00:07:42.567Z,41.23
2018-10-07T00:10:17.565Z,41.03
2018-10-07T00:12:48.165Z,41.93
2018-10-07T00:15:19.186Z,42.73
2018-10-07T00:17:50.885Z,45.20
2018-10-07T00:20:23.484Z,47.07
2018-10-07T00:22:54.246Z,45.07
2018-10-07T00:25:26.244Z,47.07
2018-10-07T00:27:57.105Z,48.30
2018-10-07T00:30:28.006Z,47.33
2018-10-07T00:32:58.724Z,47.27
2018-10-07T00:35:30.658Z,46.50
2018-10-07T00:38:01.118Z,46.33
2018-10-07T00:40:32.778Z,43.87
2018-10-07T00:43:04.499Z,45.63
2018-10-07T00:45:35.240Z,47.33
2018-10-07T00:48:06.099Z,51.70
2018-10-07T00:50:37.779Z,52.73
2018-10-07T00:53:12.261Z,57.90
2018-10-07T00:55:44.580Z,54.37
2018-10-07T00:58:15.519Z,53.27
2018-10-07T01:00:46.540Z,52.93
2018-10-07T01:03:18.179Z,53.40
2018-10-07T01:05:49.920Z,52.23
2018-10-07T01:08:23.803Z,51.47
2018-10-07T01:10:56.179Z,48.63
2018-10-07T01:13:28.199Z,46.97
2018-10-07T01:16:00.519Z,48.67
2018-10-07T01:18:31.851Z,48.93
2018-10-07T01:21:03.459Z,48.63
2018-10-07T01:23:35.938Z,48.30
2018-10-07T01:26:07.879Z,47.07
2018-10-07T01:28:39.979Z,46.17
2018-10-07T01:31:12.539Z,44.70
2018-10-07T01:33:45.100Z,46.17
2018-10-07T01:36:17.819Z,45.27
2018-10-07T01:38:49.171Z,45.10
2018-10-07T01:41:22.119Z,45.77
2018-10-07T01:43:53.839Z,46.53
2018-10-07T01:46:29.139Z,45.93
2018-10-07T01:49:04.158Z,45.03
2018-10-07T01:51:41.278Z,44.93
2018-10-07T01:54:13.959Z,43.20
2018-10-07T01:56:47.679Z,41.63
2018-10-07T01:59:27.311Z,40.87
2018-10-07T02:02:01.720Z,38.70
2018-10-07T02:04:34.520Z,38.87
2018-10-07T02:07:07.721Z,39.33
2018-10-07T02:09:42.859Z,40.87
2018-10-07T02:12:16.503Z,40.47
2018-10-07T02:17:27.230Z,43.40
2018-10-07T02:19:59.641Z,45.70
2018-10-07T02:25:15.562Z,43.30
2018-10-07T02:27:45.701Z,46.27
2018-10-07T02:30:15.620Z,50.07
2018-10-07T02:32:45.602Z,48.47
2018-10-07T02:35:17.060Z,46.33
2018-10-07T02:37:47.179Z,49.10
2018-10-07T02:40:17.079Z,47.90
2018-10-07T02:42:47.300Z,48.30
2018-10-07T02:45:17.719Z,64.03
2018-10-07T02:47:51.579Z,65.53
2018-10-07T02:50:23.519Z,53.47
2018-10-07T02:52:55.899Z,50.13
2018-10-07T02:55:39.960Z,51.83
2018-10-07T02:58:11.680Z,52.80
2018-10-07T03:00:42.099Z,51.67
2018-10-07T03:03:11.980Z,49.97
2018-10-07T03:05:43.540Z,49.20
2018-10-07T03:08:13.279Z,48.73
2018-10-07T03:10:45.040Z,49.17
2018-10-07T03:13:14.902Z,48.30
2018-10-07T03:15:52.260Z,47.67
2018-10-07T03:18:22.201Z,48.87
2018-10-07T03:20:53.280Z,47.67
2018-10-07T03:23:23.000Z,49.57
2018-10-07T03:25:52.859Z,50.47
2018-10-07T03:28:22.881Z,49.37
2018-10-07T03:30:53.200Z,48.30
2018-10-07T03:33:22.980Z,45.47
2018-10-07T03:35:54.400Z,44.90
2018-10-07T03:38:24.481Z,42.83
2018-10-07T03:40:54.220Z,41.63
2018-10-07T03:43:29.440Z,43.33
2018-10-07T03:45:59.600Z,45.27
2018-10-07T03:48:29.560Z,44.20
2018-10-07T03:50:59.760Z,45.57
2018-10-07T03:53:29.741Z,44.37
2018-10-07T03:56:01.001Z,44.27
2018-10-07T03:58:31.840Z,44.87
2018-10-07T04:04:01.759Z,47.50
2018-10-07T04:06:31.919Z,46.50
2018-10-07T04:09:12.681Z,46.87
2018-10-07T04:11:43.920Z,47.50
2018-10-07T04:14:14.800Z,43.10
2018-10-07T04:16:46.241Z,43.67
2018-10-07T04:19:16.424Z,44.40
2018-10-07T04:21:53.780Z,47.37
2018-10-07T04:24:25.101Z,53.33
2018-10-07T04:26:55.000Z,47.43
2018-10-07T04:29:32.619Z,44.47
2018-10-07T04:32:02.785Z,43.93
2018-10-07T04:34:33.300Z,55.07
2018-10-07T04:37:04.360Z,47.43
2018-10-07T04:39:35.742Z,44.93
2018-10-07T04:42:07.122Z,46.03
2018-10-07T04:44:37.260Z,48.60
2018-10-07T04:47:07.420Z,48.37
2018-10-07T04:49:37.420Z,47.00
2018-10-07T04:52:08.679Z,47.60
2018-10-07T04:54:38.526Z,45.30
2018-10-07T04:57:12.419Z,45.23
2018-10-07T04:59:43.999Z,43.90
2018-10-07T05:02:15.024Z,43.53
2018-10-07T05:04:46.563Z,43.77
2018-10-07T05:07:19.685Z,42.97
2018-10-07T05:09:55.348Z,43.30
2018-10-07T05:12:28.209Z,42.47
2018-10-07T05:15:01.686Z,41.77
2018-10-07T05:17:35.966Z,41.27
2018-10-07T05:20:07.992Z,39.83
2018-10-07T05:22:40.165Z,40.80
2018-10-07T05:25:13.430Z,39.20
2018-10-07T05:27:45.123Z,41.10
2018-10-07T05:30:18.027Z,40.20
2018-10-07T05:32:51.042Z,42.67
2018-10-07T05:35:25.244Z,42.30
2018-10-07T05:37:56.601Z,41.43
2018-10-07T05:40:30.288Z,41.17
2018-10-07T05:43:07.225Z,39.90
2018-10-07T05:45:44.102Z,38.23
2018-10-07T05:48:16.322Z,38.53
2018-10-07T05:50:51.708Z,36.93
2018-10-07T05:53:27.022Z,36.43
2018-10-07T05:55:59.204Z,34.87
2018-10-07T05:58:31.503Z,35.33
2018-10-07T06:01:09.838Z,34.50
2018-10-07T06:03:57.602Z,35.53
2018-10-07T06:06:31.441Z,35.80
2018-10-07T06:09:05.842Z,33.90
2018-10-07T06:11:39.061Z,35.43
2018-10-07T06:16:24.642Z,35.07
2018-10-07T06:18:59.726Z,33.17
2018-10-07T06:24:14.866Z,32.70
2018-10-07T06:26:47.563Z,34.83
2018-10-07T06:29:19.924Z,37.20
2018-10-07T06:31:55.717Z,39.10
2018-10-07T06:34:33.944Z,41.23
2018-10-07T06:37:09.943Z,40.17
2018-10-07T06:39:40.018Z,40.07
2018-10-07T06:42:10.023Z,39.63
2018-10-07T06:44:39.943Z,40.10
2018-10-07T06:47:09.843Z,40.30
2018-10-07T06:49:40.009Z,40.07
2018-10-07T06:52:10.064Z,37.57
2018-10-07T06:54:40.423Z,42.47
2018-10-07T06:57:10.505Z,41.50
2018-10-07T06:59:41.323Z,40.53
2018-10-07T07:02:11.305Z,44.17
2018-10-07T07:04:43.344Z,42.97
2018-10-07T07:07:13.424Z,43.87
2018-10-07T07:09:43.264Z,44.53
2018-10-07T07:12:13.366Z,45.17
2018-10-07T07:14:44.304Z,43.80
2018-10-07T07:17:14.064Z,38.33
2018-10-07T07:19:44.132Z,35.67
2018-10-07T07:24:47.765Z,30.63
2018-10-07T07:27:17.724Z,30.07
2018-10-07T07:29:48.581Z,28.87
2018-10-07T07:32:18.404Z,26.27
2018-10-07T07:34:48.487Z,27.53
2018-10-07T07:37:18.304Z,26.47
2018-10-07T07:39:48.085Z,27.00
2018-10-07T07:42:18.236Z,27.00
2018-10-07T07:44:48.486Z,26.97
2018-10-07T07:47:18.284Z,25.50
2018-10-07T07:49:48.233Z,25.10
2018-10-07T07:52:18.404Z,24.20
2018-10-07T07:54:48.206Z,23.43
2018-10-07T07:57:18.164Z,23.60
2018-10-07T07:59:52.324Z,23.80
2018-10-07T08:02:22.509Z,22.57
2018-10-07T08:04:52.971Z,23.17
2018-10-07T08:07:23.013Z,22.63
2018-10-07T08:09:53.452Z,22.53
2018-10-07T08:12:23.314Z,24.50
2018-10-07T08:14:54.890Z,24.53
2018-10-07T08:17:26.318Z,24.40
2018-10-07T08:19:57.606Z,24.03
2018-10-07T08:22:28.566Z,23.57
2018-10-07T08:24:58.825Z,25.87
2018-10-07T08:27:29.575Z,27.60
2018-10-07T08:29:59.946Z,28.97
2018-10-07T08:32:29.866Z,29.00
2018-10-07T08:34:59.743Z,27.53
2018-10-07T08:37:29.726Z,29.90
2018-10-07T08:39:59.727Z,29.73
2018-10-07T08:42:30.865Z,29.57
2018-10-07T08:45:01.853Z,29.40
2018-10-07T08:47:32.025Z,30.17
2018-10-07T08:50:02.046Z,27.10
2018-10-07T08:52:32.160Z,27.17
2018-10-07T08:55:02.288Z,27.23
2018-10-07T08:57:32.325Z,26.57
2018-10-07T09:00:02.185Z,26.40
2018-10-07T09:02:33.247Z,25.47
2018-10-07T09:05:04.386Z,25.87
2018-10-07T09:07:34.432Z,26.03
2018-10-07T09:10:04.668Z,25.70
2018-10-07T09:12:34.487Z,25.43
2018-10-07T09:15:04.546Z,25.83
2018-10-07T09:17:34.446Z,25.33
2018-10-07T09:20:06.128Z,26.67
2018-10-07T09:22:36.146Z,25.97
2018-10-07T09:25:07.246Z,25.93
2018-10-07T09:27:37.671Z,25.83
2018-10-07T09:30:07.786Z,25.20
2018-10-07T09:32:37.952Z,22.67
2018-10-07T09:35:09.207Z,22.67
2018-10-07T09:37:39.367Z,22.10
2018-10-07T09:40:10.427Z,21.47
2018-10-07T09:42:41.446Z,19.87
2018-10-07T09:45:11.846Z,21.73
2018-10-07T09:47:42.886Z,20.23
2018-10-07T09:50:12.968Z,20.00
2018-10-07T09:52:43.135Z,18.83
2018-10-07T09:55:14.306Z,20.00
2018-10-07T09:57:45.386Z,18.43
2018-10-07T10:00:21.024Z,19.47
2018-10-07T10:02:52.329Z,18.80
2018-10-07T10:05:22.348Z,17.63
2018-10-07T10:07:53.449Z,14.80
2018-10-07T10:10:23.308Z,16.43
2018-10-07T10:12:53.289Z,16.70
2018-10-07T10:15:23.329Z,18.90
2018-10-07T10:17:57.772Z,20.07
2018-10-07T10:20:31.529Z,17.87
2018-10-07T10:23:08.508Z,15.33
2018-10-07T10:27:56.338Z,9.87
2018-10-07T10:32:37.808Z,8.20
2018-10-07T10:35:30.088Z,8.67
2018-10-07T10:38:19.349Z,8.43
2018-10-07T10:40:59.349Z,8.60
2018-10-07T10:44:04.328Z,6.90
2018-10-07T10:47:11.468Z,8.17
2018-10-07T10:49:51.787Z,8.90
2018-10-07T10:52:34.342Z,8.87
2018-10-07T10:55:21.861Z,8.73
2018-10-07T10:57:55.982Z,8.77
2018-10-07T11:00:33.042Z,9.30
2018-10-07T11:03:22.869Z,8.50
2018-10-07T11:06:00.472Z,8.87
2018-10-07T11:08:39.161Z,8.33
2018-10-07T11:11:16.917Z,8.20
2018-10-07T11:14:31.568Z,9.20
2018-10-07T11:17:13.429Z,8.10
2018-10-07T11:19:55.331Z,9.93
2018-10-07T11:22:36.888Z,8.80
2018-10-07T11:25:13.748Z,10.23
2018-10-07T11:28:01.090Z,9.40
2018-10-07T11:30:34.130Z,8.37
2018-10-07T11:35:16.090Z,8.30
2018-10-07T11:37:54.910Z,7.97
2018-10-07T11:40:35.059Z,8.23
2018-10-07T11:43:10.504Z,7.97
2018-10-07T11:45:49.513Z,6.63
2018-10-07T11:49:44.064Z,8.80
2018-10-07T11:52:24.323Z,10.20
2018-10-07T11:54:58.411Z,9.20
2018-10-07T11:57:29.622Z,7.50
2018-10-07T12:00:00.504Z,7.27
2018-10-07T12:02:30.493Z,6.77
2018-10-07T12:05:00.507Z,6.23
2018-10-07T12:07:32.032Z,5.47
2018-10-07T12:10:02.116Z,5.43
2018-10-07T12:12:31.985Z,5.50
2018-10-07T12:17:36.146Z,6.13
2018-10-07T12:20:07.724Z,5.90
2018-10-07T12:22:37.679Z,6.53
2018-10-07T12:25:07.694Z,7.27
2018-10-07T12:27:38.004Z,6.87
2018-10-07T12:30:08.485Z,6.60
2018-10-07T12:32:38.605Z,5.93
2018-10-07T12:35:09.393Z,6.40
2018-10-07T12:37:40.187Z,6.37
2018-10-07T12:40:11.104Z,6.70
2018-10-07T12:42:42.452Z,6.80
2018-10-07T12:45:13.426Z,7.00
2018-10-07T12:47:45.864Z,7.13
2018-10-07T12:50:16.020Z,6.93
2018-10-07T12:52:46.240Z,7.83
2018-10-07T12:55:17.283Z,7.23
2018-10-07T12:57:47.083Z,7.90
2018-10-07T13:00:17.272Z,8.13
2018-10-07T13:02:47.421Z,8.37
2018-10-07T13:05:17.508Z,8.63
2018-10-07T13:07:47.348Z,9.40
2018-10-07T13:10:17.219Z,9.20
2018-10-07T13:12:47.201Z,8.80
2018-10-07T13:15:18.600Z,7.20
2018-10-07T13:17:49.599Z,8.27
2018-10-07T13:20:20.239Z,7.67
2018-10-07T13:22:50.401Z,7.70
2018-10-07T13:25:21.360Z,7.73
2018-10-07T13:27:51.199Z,6.93
2018-10-07T13:30:22.239Z,7.47
2018-10-07T13:32:53.601Z,7.47
2018-10-07T13:35:24.319Z,6.83
2018-10-07T13:37:59.824Z,6.93
2018-10-07T13:40:29.920Z,7.33
2018-10-07T13:42:59.941Z,6.70
2018-10-07T13:45:30.081Z,6.53
2018-10-07T13:48:01.021Z,5.93
2018-10-07T13:50:36.181Z,6.20
2018-10-07T13:53:07.300Z,5.50
2018-10-07T13:55:38.080Z,5.60
2018-10-07T13:58:08.099Z,5.53
2018-10-07T14:00:38.264Z,5.37
2018-10-07T14:03:09.144Z,5.13
2018-10-07T14:05:39.029Z,5.10
2018-10-07T14:08:10.086Z,5.13
2018-10-07T14:10:41.186Z,4.63
2018-10-07T14:13:12.804Z,5.20
2018-10-07T14:18:16.805Z,4.70
2018-10-07T14:20:48.404Z,4.73
2018-10-07T14:23:19.535Z,5.80
2018-10-07T14:25:51.007Z,6.33
2018-10-07T14:28:21.346Z,6.50
2018-10-07T14:30:53.274Z,6.33
2018-10-07T14:33:23.366Z,6.57
2018-10-07T14:35:53.308Z,7.00
2018-10-07T14:38:24.487Z,6.37
2018-10-07T14:40:55.226Z,6.57
2018-10-07T14:43:25.933Z,5.93
2018-10-07T14:45:55.923Z,6.57
2018-10-07T14:48:26.082Z,6.43
2018-10-07T14:50:56.030Z,5.83
2018-10-07T14:53:27.442Z,6.37
2018-10-07T14:55:58.303Z,6.57
2018-10-07T14:58:28.241Z,7.07
2018-10-07T15:00:58.459Z,7.23
2018-10-07T15:03:29.427Z,10.90
2018-10-07T15:06:00.273Z,10.23
2018-10-07T15:08:30.566Z,10.40
2018-10-07T15:11:10.207Z,10.47
2018-10-07T15:13:53.412Z,10.90
2018-10-07T15:16:27.685Z,10.17
2018-10-07T15:21:39.015Z,11.20
2018-10-07T15:24:11.024Z,12.27
2018-10-07T15:26:42.044Z,12.43
2018-10-07T15:29:13.172Z,12.30
2018-10-07T15:31:44.465Z,12.03
2018-10-07T15:34:15.538Z,12.93
2018-10-07T15:36:48.013Z,13.50
2018-10-07T15:39:23.143Z,14.07
2018-10-07T15:41:58.684Z,13.00
2018-10-07T15:44:30.004Z,13.27
2018-10-07T15:47:04.875Z,13.97
2018-10-07T15:49:36.767Z,14.20
2018-10-07T15:52:11.164Z,14.80
2018-10-07T15:54:43.363Z,14.83
2018-10-07T15:57:17.765Z,14.70
2018-10-07T15:59:50.651Z,15.30
2018-10-07T16:02:22.570Z,15.87
2018-10-07T16:05:02.155Z,16.40
2018-10-07T16:07:39.709Z,15.77
2018-10-07T16:10:17.449Z,15.60
2018-10-07T16:12:51.451Z,14.93
2018-10-07T16:15:28.349Z,15.70
2018-10-07T16:18:06.551Z,15.37
2018-10-07T16:20:45.172Z,15.13
2018-10-07T16:23:27.872Z,14.53
2018-10-07T16:26:09.239Z,14.60
2018-10-07T16:28:44.631Z,15.57
2018-10-07T16:31:21.443Z,14.57
2018-10-07T16:36:32.060Z,12.70
2018-10-07T16:39:04.550Z,13.63
2018-10-07T16:41:40.566Z,14.13
2018-10-07T16:44:15.860Z,14.53
2018-10-07T16:46:53.043Z,13.53
2018-10-07T16:49:28.841Z,14.43
2018-10-07T16:52:02.340Z,16.00
2018-10-07T16:54:36.361Z,17.17
2018-10-07T16:57:08.720Z,16.07
2018-10-07T16:59:40.318Z,18.40
2018-10-07T17:02:16.321Z,19.60
2018-10-07T17:04:51.702Z,20.87
2018-10-07T17:07:23.363Z,21.53
2018-10-07T17:10:01.783Z,21.50
2018-10-07T17:12:36.644Z,21.27
2018-10-07T17:15:11.201Z,22.07
2018-10-07T17:17:45.682Z,21.53
2018-10-07T17:20:20.383Z,22.13
2018-10-07T17:23:00.122Z,22.50
2018-10-07T17:25:36.822Z,24.87
2018-10-07T17:28:16.403Z,24.47
2018-10-07T17:30:51.382Z,24.57
2018-10-07T17:36:03.967Z,25.17
2018-10-07T17:38:38.643Z,23.77
2018-10-07T17:41:10.707Z,25.10
2018-10-07T17:43:42.576Z,24.60
2018-10-07T17:46:14.981Z,23.50
2018-10-07T17:48:50.173Z,23.63
2018-10-07T17:51:28.943Z,23.90
2018-10-07T17:54:04.647Z,23.20
2018-10-07T17:56:37.001Z,24.70
2018-10-07T17:59:12.164Z,24.33
2018-10-07T18:01:46.443Z,23.83
2018-10-07T18:04:18.828Z,24.03
2018-10-07T18:09:36.345Z,23.37
2018-10-07T18:12:12.988Z,22.93
2018-10-07T18:14:55.187Z,24.27
2018-10-07T18:17:38.906Z,23.97
2018-10-07T18:20:29.426Z,22.40
2018-10-07T18:23:15.027Z,22.73
2018-10-07T18:26:14.626Z,22.73
2018-10-07T18:34:47.901Z,20.97
2018-10-07T18:37:17.988Z,20.57
2018-10-07T18:39:47.826Z,20.90
2018-10-07T18:42:17.948Z,19.87
2018-10-07T18:44:47.896Z,20.40
2018-10-07T18:47:17.625Z,20.50
2018-10-07T18:49:47.744Z,21.27
2018-10-07T18:52:17.505Z,21.67
2018-10-07T18:54:48.710Z,21.67
2018-10-07T18:57:20.792Z,21.93
2018-10-07T18:59:50.746Z,22.93
2018-10-07T19:02:20.463Z,22.87
2018-10-07T19:04:50.325Z,22.53
2018-10-07T19:07:20.074Z,21.70
2018-10-07T19:09:50.149Z,22.77
2018-10-07T19:12:20.160Z,22.73
2018-10-07T19:14:51.364Z,23.20
2018-10-07T19:17:22.244Z,22.60
2018-10-07T19:19:52.234Z,22.27
2018-10-07T19:22:22.214Z,23.03
2018-10-07T19:24:52.327Z,23.77
2018-10-07T19:27:23.123Z,23.83
2018-10-07T19:29:52.803Z,24.47
2018-10-07T19:32:25.489Z,24.77
2018-10-07T19:34:56.448Z,25.47
2018-10-07T19:37:27.290Z,26.03
2018-10-07T19:39:57.100Z,24.93
2018-10-07T19:42:26.743Z,25.47
2018-10-07T19:44:56.561Z,25.90
2018-10-07T19:47:27.781Z,26.40
2018-10-07T19:49:57.565Z,25.50
2018-10-07T19:52:30.959Z,25.23
2018-10-07T19:55:09.340Z,25.27
2018-10-07T19:57:39.780Z,24.43
2018-10-07T20:00:10.742Z,25.20
2018-10-07T20:02:40.212Z,25.03
2018-10-07T20:05:13.787Z,22.77
2018-10-07T20:07:43.598Z,23.40
2018-10-07T20:10:13.922Z,23.23
2018-10-07T20:12:44.971Z,23.73
2018-10-07T20:15:14.666Z,22.77
2018-10-07T20:17:44.463Z,20.53
2018-10-07T20:20:15.300Z,18.93
2018-10-07T20:22:45.265Z,17.17
2018-10-07T20:25:16.580Z,15.60
2018-10-07T20:27:46.402Z,13.40
2018-10-07T20:30:17.039Z,12.63
2018-10-07T20:32:46.880Z,11.53
2018-10-07T20:35:16.818Z,11.33
2018-10-07T20:37:48.018Z,10.63
2018-10-07T20:40:18.117Z,10.53
2018-10-07T20:42:49.164Z,10.93
2018-10-07T20:45:20.139Z,10.50
2018-10-07T20:47:50.241Z,10.30
2018-10-07T20:50:20.000Z,10.07
2018-10-07T20:52:50.120Z,9.97
2018-10-07T20:55:20.160Z,9.73
2018-10-07T20:57:50.019Z,9.83
2018-10-07T21:00:20.463Z,8.70
2018-10-07T21:02:50.511Z,8.53
2018-10-07T21:05:20.482Z,8.50
2018-10-07T21:07:50.202Z,8.57
2018-10-07T21:10:20.242Z,9.17
2018-10-07T21:12:50.286Z,8.33
2018-10-07T21:15:20.162Z,8.60
2018-10-07T21:17:50.223Z,7.90
2018-10-07T21:20:21.520Z,7.70
2018-10-07T21:22:51.660Z,8.07
2018-10-07T21:25:25.718Z,8.50
2018-10-07T21:27:55.579Z,8.60
2018-10-07T21:30:25.439Z,7.93
2018-10-07T21:32:55.466Z,7.93
2018-10-07T21:35:25.398Z,8.07
2018-10-07T21:37:55.259Z,7.87
2018-10-07T21:40:25.439Z,8.00
2018-10-07T21:42:55.538Z,7.30
2018-10-07T21:45:25.407Z,8.13
2018-10-07T21:47:55.358Z,7.37
2018-10-07T21:50:25.999Z,7.63
2018-10-07T21:52:56.078Z,7.07
2018-10-07T21:55:27.199Z,7.87
2018-10-07T21:57:57.258Z,7.80
2018-10-07T22:00:28.093Z,7.70
2018-10-07T22:02:57.920Z,8.20
2018-10-07T22:05:30.079Z,7.63
2018-10-07T22:07:59.940Z,8.20
2018-10-07T22:10:29.700Z,7.40
2018-10-07T22:12:59.682Z,7.93
2018-10-07T22:15:29.759Z,7.30
2018-10-07T22:17:59.843Z,8.03
2018-10-07T22:20:29.803Z,8.03
2018-10-07T22:23:00.761Z,7.90
2018-10-07T22:25:34.979Z,7.63
2018-10-07T22:28:04.959Z,8.17
2018-10-07T22:30:34.778Z,8.00
2018-10-07T22:33:04.739Z,7.93
2018-10-07T22:35:35.919Z,7.97
2018-10-07T22:38:05.699Z,7.80
2018-10-07T22:40:35.980Z,7.77
2018-10-07T22:43:07.341Z,7.47
2018-10-07T22:45:38.399Z,7.77
2018-10-07T22:48:12.665Z,7.70
2018-10-07T22:50:42.679Z,7.43
2018-10-07T22:53:13.746Z,7.43
2018-10-07T22:55:43.779Z,7.77
2018-10-07T22:58:13.959Z,7.77
2018-10-07T23:00:43.987Z,8.07
2018-10-07T23:03:14.939Z,8.20
2018-10-07T23:05:44.779Z,7.47
2018-10-07T23:08:15.699Z,8.57
2018-10-07T23:10:45.859Z,8.00
2018-10-07T23:13:21.119Z,8.00
2018-10-07T23:15:51.142Z,7.63
2018-10-07T23:18:22.419Z,7.73
2018-10-07T23:20:52.259Z,7.77
2018-10-07T23:23:26.559Z,8.00
2018-10-07T23:25:56.318Z,7.57
2018-10-07T23:28:30.458Z,7.70
2018-10-07T23:31:00.343Z,7.70
2018-10-07T23:33:30.198Z,7.00
2018-10-07T23:35:59.991Z,7.23
2018-10-07T23:38:32.224Z,7.70
2018-10-07T23:41:03.279Z,7.23
2018-10-07T23:43:33.279Z,7.17
2018-10-07T23:46:04.001Z,7.40
2018-10-07T23:48:43.539Z,7.93
2018-10-07T23:51:13.447Z,7.63
2018-10-07T23:53:43.459Z,7.50
2018-10-07T23:56:13.579Z,8.07
2018-10-07T23:58:43.439Z,8.03
